Time;durP1;ratioP1;P1;durP2;ratioP2;P2;SDS_P1;SDS_P2;PMS_P1;PMS_P2;Temp;Humidity;BMP_temperature;BMP_pressure;BME280_temperature;BME280_humidity;BME280_pressure;Samples;Min_cycle;Max_cycle;Signal;HPM_P1;HPM_P2
2023/07/09 00:00:24;;;;;;;0.05;0.05;;;;;;;;;;5092748;28;20059;-91
2023/07/09 00:02:50;;;;;;;0.00;0.00;;;;;;;;;;5093152;28;20028;-90
2023/07/09 00:05:17;;;;;;;0.20;0.20;;;;;;;;;;5092268;28;20028;-91
2023/07/09 00:07:45;;;;;;;0.65;0.55;;;;;;;;;;5092939;28;20029;-90
2023/07/09 00:10:15;;;;;;;0.10;0.10;;;;;;;;;;5092939;28;20035;-91
2023/07/09 00:12:41;;;;;;;0.10;0.10;;;;;;;;;;5092335;28;20038;-91
2023/07/09 00:15:09;;;;;;;0.00;0.00;;;;;;;;;;5092848;28;20024;-90
2023/07/09 00:17:35;;;;;;;0.10;0.10;;;;;;;;;;5092638;28;20105;-90
2023/07/09 00:20:04;;;;;;;0.40;0.40;;;;;;;;;;5092862;28;20423;-91
2023/07/09 00:22:30;;;;;;;0.05;0.05;;;;;;;;;;5092669;28;20032;-91
2023/07/09 00:24:56;;;;;;;0.10;0.10;;;;;;;;;;5092863;28;20081;-91
2023/07/09 00:27:24;;;;;;;0.90;0.50;;;;;;;;;;5092296;28;20063;-91
2023/07/09 00:29:52;;;;;;;0.10;0.10;;;;;;;;;;5092483;28;20123;-90
2023/07/09 00:32:20;;;;;;;0.65;0.20;;;;;;;;;;5092931;28;20607;-91
2023/07/09 00:34:51;;;;;;;0.20;0.20;;;;;;;;;;5092549;28;20024;-90
2023/07/09 00:37:17;;;;;;;0.30;0.30;;;;;;;;;;5092693;28;20032;-91
2023/07/09 00:39:44;;;;;;;0.30;0.30;;;;;;;;;;5092430;28;20020;-90
2023/07/09 00:42:20;;;;;;;2.40;0.30;;;;;;;;;;5092223;28;20101;-91
2023/07/09 00:44:54;;;;;;;0.30;0.30;;;;;;;;;;5092729;28;20031;-91
2023/07/09 00:47:20;;;;;;;0.25;0.25;;;;;;;;;;5092205;28;20028;-91
2023/07/09 00:49:47;;;;;;;0.50;0.50;;;;;;;;;;5092682;28;20484;-90
2023/07/09 00:52:33;;;;;;;0.47;0.47;;;;;;;;;;5092343;28;20031;-91
2023/07/09 00:55:01;;;;;;;0.60;0.60;;;;;;;;;;5092093;28;20032;-91
2023/07/09 00:57:27;;;;;;;0.22;0.22;;;;;;;;;;5092318;28;20021;-90
2023/07/09 00:59:57;;;;;;;0.98;0.82;;;;;;;;;;5092309;28;20440;-91
2023/07/09 01:02:23;;;;;;;0.43;0.43;;;;;;;;;;5092743;28;20024;-90
2023/07/09 01:04:55;;;;;;;2.63;0.63;;;;;;;;;;5092356;28;20027;-90
2023/07/09 01:07:21;;;;;;;0.30;0.30;;;;;;;;;;5092168;28;20030;-91
2023/07/09 01:09:47;;;;;;;0.50;0.50;;;;;;;;;;5091784;28;20050;-91
2023/07/09 01:12:15;;;;;;;0.20;0.20;;;;;;;;;;5092215;28;20044;-91
2023/07/09 01:14:42;;;;;;;0.10;0.10;;;;;;;;;;5092572;28;20032;-90
2023/07/09 01:17:09;;;;;;;0.30;0.30;;;;;;;;;;5092903;28;20437;-91
2023/07/09 01:19:46;;;;;;;0.65;0.65;;;;;;;;;;5095923;28;20086;-91
2023/07/09 01:22:13;;;;;;;0.28;0.28;;;;;;;;;;5095917;28;20369;-91
2023/07/09 01:24:57;;;;;;;0.00;0.00;;;;;;;;;;5095260;28;20020;-90
2023/07/09 01:27:27;;;;;;;0.50;0.50;;;;;;;;;;5095376;28;20040;-91
2023/07/09 01:29:54;;;;;;;0.47;0.47;;;;;;;;;;5095517;28;20063;-91
2023/07/09 01:32:21;;;;;;;0.10;0.10;;;;;;;;;;5095820;28;20032;-90
2023/07/09 01:34:48;;;;;;;1.70;0.77;;;;;;;;;;5095385;28;20031;-91
2023/07/09 01:37:16;;;;;;;0.10;0.10;;;;;;;;;;5095588;28;20020;-90
2023/07/09 01:39:42;;;;;;;0.20;0.20;;;;;;;;;;5095048;28;20024;-91
2023/07/09 01:42:08;;;;;;;0.20;0.20;;;;;;;;;;5095778;28;20077;-90
2023/07/09 01:44:35;;;;;;;0.08;0.08;;;;;;;;;;5095172;28;20020;-90
2023/07/09 01:47:03;;;;;;;0.10;0.10;;;;;;;;;;5095272;28;20450;-91
2023/07/09 01:49:31;;;;;;;0.13;0.10;;;;;;;;;;5077440;28;20024;-91
2023/07/09 01:51:58;;;;;;;0.20;0.20;;;;;;;;;;5095035;28;20397;-90
2023/07/09 01:54:24;;;;;;;0.00;0.00;;;;;;;;;;5094528;28;20035;-90
2023/07/09 01:56:50;;;;;;;0.30;0.20;;;;;;;;;;5095046;28;20115;-90
2023/07/09 01:59:16;;;;;;;0.10;0.10;;;;;;;;;;5095217;28;20024;-90
2023/07/09 02:01:42;;;;;;;0.10;0.10;;;;;;;;;;5094969;28;20028;-90
2023/07/09 02:04:08;;;;;;;0.10;0.10;;;;;;;;;;5094911;28;20103;-90
2023/07/09 02:06:34;;;;;;;0.20;0.20;;;;;;;;;;5094664;28;20031;-91
2023/07/09 02:09:00;;;;;;;0.10;0.10;;;;;;;;;;5094388;28;20020;-90
2023/07/09 02:11:26;;;;;;;0.10;0.10;;;;;;;;;;5095090;28;20043;-91
2023/07/09 02:13:52;;;;;;;0.30;0.30;;;;;;;;;;5094750;28;20024;-90
2023/07/09 02:16:18;;;;;;;0.17;0.17;;;;;;;;;;5094932;28;20035;-90
2023/07/09 02:18:44;;;;;;;0.10;0.10;;;;;;;;;;5094717;28;20385;-90
2023/07/09 02:21:10;;;;;;;0.22;0.22;;;;;;;;;;5094368;28;20035;-90
2023/07/09 02:23:36;;;;;;;0.30;0.10;;;;;;;;;;5094173;28;20430;-91
2023/07/09 02:26:02;;;;;;;0.20;0.20;;;;;;;;;;5095174;28;20107;-90
2023/07/09 02:28:28;;;;;;;0.15;0.15;;;;;;;;;;5093681;28;20048;-90
2023/07/09 02:30:54;;;;;;;0.40;0.40;;;;;;;;;;5094447;28;20036;-90
2023/07/09 02:33:20;;;;;;;0.43;0.35;;;;;;;;;;5094184;28;20028;-90
2023/07/09 02:35:46;;;;;;;0.38;0.38;;;;;;;;;;5094130;28;20024;-90
2023/07/09 02:38:12;;;;;;;0.22;0.22;;;;;;;;;;5093986;28;20082;-90
2023/07/09 02:40:39;;;;;;;0.68;0.30;;;;;;;;;;5094477;28;20032;-91
2023/07/09 02:43:05;;;;;;;0.32;0.20;;;;;;;;;;5094069;28;20028;-91
2023/07/09 02:45:31;;;;;;;0.40;0.40;;;;;;;;;;5094333;28;20032;-90
2023/07/09 02:47:57;;;;;;;0.30;0.30;;;;;;;;;;5094067;28;20028;-91
2023/07/09 02:50:23;;;;;;;0.43;0.43;;;;;;;;;;5093771;28;20487;-91
2023/07/09 02:52:49;;;;;;;1.65;0.98;;;;;;;;;;5094049;28;20118;-91
2023/07/09 02:55:15;;;;;;;0.20;0.20;;;;;;;;;;5094016;28;20028;-90
2023/07/09 02:57:41;;;;;;;0.20;0.20;;;;;;;;;;5093801;28;20038;-90
2023/07/09 03:00:07;;;;;;;0.20;0.20;;;;;;;;;;5093929;28;20063;-90
2023/07/09 03:02:34;;;;;;;0.25;0.25;;;;;;;;;;5093868;28;20012;-90
2023/07/09 03:05:00;;;;;;;0.43;0.43;;;;;;;;;;5093466;28;20408;-90
2023/07/09 03:07:26;;;;;;;0.20;0.20;;;;;;;;;;5093677;28;20016;-90
2023/07/09 03:09:52;;;;;;;0.30;0.30;;;;;;;;;;5094273;28;20035;-90
2023/07/09 03:12:18;;;;;;;1.08;0.68;;;;;;;;;;5093513;28;20040;-90
2023/07/09 03:14:47;;;;;;;0.60;0.60;;;;;;;;;;5093848;28;20466;-90
2023/07/09 03:17:13;;;;;;;0.35;0.30;;;;;;;;;;5093166;28;20391;-91
2023/07/09 03:19:39;;;;;;;1.38;0.57;;;;;;;;;;5093172;28;20099;-91
2023/07/09 03:22:05;;;;;;;0.30;0.28;;;;;;;;;;5093354;28;20027;-90
2023/07/09 03:24:31;;;;;;;0.10;0.10;;;;;;;;;;5093515;28;20031;-90
2023/07/09 03:26:57;;;;;;;0.38;0.25;;;;;;;;;;5074971;28;20048;-90
2023/07/09 03:29:23;;;;;;;0.52;0.52;;;;;;;;;;5093366;28;20032;-91
2023/07/09 03:31:49;;;;;;;0.70;0.70;;;;;;;;;;5074928;28;20477;-90
2023/07/09 03:34:15;;;;;;;0.57;0.57;;;;;;;;;;5092896;28;20033;-90
2023/07/09 03:36:41;;;;;;;0.10;0.10;;;;;;;;;;5093752;28;20024;-90
2023/07/09 03:39:07;;;;;;;0.10;0.10;;;;;;;;;;5093331;28;20099;-90
2023/07/09 03:41:34;;;;;;;0.60;0.60;;;;;;;;;;5093041;28;20052;-90
2023/07/09 03:44:00;;;;;;;0.15;0.15;;;;;;;;;;5093123;28;20024;-91
2023/07/09 03:46:26;;;;;;;0.20;0.20;;;;;;;;;;5093439;28;20028;-90
2023/07/09 03:48:52;;;;;;;0.70;0.65;;;;;;;;;;5092739;28;20094;-90
2023/07/09 03:51:18;;;;;;;0.20;0.20;;;;;;;;;;5092948;28;20040;-90
2023/07/09 03:53:44;;;;;;;0.22;0.22;;;;;;;;;;5093199;28;20099;-90
2023/07/09 03:56:10;;;;;;;0.15;0.15;;;;;;;;;;5092954;28;20053;-90
2023/07/09 03:58:36;;;;;;;0.20;0.20;;;;;;;;;;5092613;28;20036;-90
2023/07/09 04:01:02;;;;;;;0.40;0.25;;;;;;;;;;5092781;28;20020;-90
2023/07/09 04:03:28;;;;;;;0.03;0.03;;;;;;;;;;5093059;28;20028;-90
2023/07/09 04:05:54;;;;;;;0.30;0.30;;;;;;;;;;5092688;28;20031;-90
2023/07/09 04:08:20;;;;;;;1.63;0.40;;;;;;;;;;5092783;28;20496;-90
2023/07/09 04:10:46;;;;;;;0.38;0.22;;;;;;;;;;5092676;28;20020;-91
2023/07/09 04:13:12;;;;;;;0.98;0.73;;;;;;;;;;5092785;28;20036;-90
2023/07/09 04:15:38;;;;;;;0.70;0.35;;;;;;;;;;5092571;28;20024;-90
2023/07/09 04:18:04;;;;;;;0.38;0.15;;;;;;;;;;5074188;28;20036;-90
2023/07/09 04:20:30;;;;;;;0.10;0.10;;;;;;;;;;5092533;28;20020;-90
2023/07/09 04:22:56;;;;;;;0.13;0.13;;;;;;;;;;5092754;28;20039;-90
2023/07/09 04:25:22;;;;;;;0.22;0.22;;;;;;;;;;5092696;28;20016;-90
2023/07/09 04:27:50;;;;;;;0.28;0.28;;;;;;;;;;5092251;28;20093;-90
2023/07/09 04:30:16;;;;;;;0.17;0.17;;;;;;;;;;5092784;28;20020;-91
2023/07/09 04:32:45;;;;;;;0.45;0.43;;;;;;;;;;5092132;28;20230;-90
2023/07/09 04:35:12;;;;;;;0.17;0.17;;;;;;;;;;5092359;28;20452;-90
2023/07/09 04:37:38;;;;;;;0.35;0.28;;;;;;;;;;5092558;28;20032;-90
2023/07/09 04:40:06;;;;;;;1.98;0.88;;;;;;;;;;5092865;28;20024;-90
2023/07/09 04:42:33;;;;;;;0.28;0.28;;;;;;;;;;5092443;28;20069;-90
2023/07/09 04:44:59;;;;;;;0.20;0.10;;;;;;;;;;5092259;28;20032;-90
2023/07/09 04:47:25;;;;;;;0.45;0.22;;;;;;;;;;5092214;28;20065;-90
2023/07/09 04:49:51;;;;;;;0.25;0.25;;;;;;;;;;5092862;28;20085;-90
2023/07/09 04:52:17;;;;;;;0.20;0.20;;;;;;;;;;5093678;28;20036;-90
2023/07/09 04:54:44;;;;;;;0.22;0.22;;;;;;;;;;5096303;28;20020;-90
2023/07/09 04:57:10;;;;;;;0.17;0.17;;;;;;;;;;5096259;28;20488;-90
2023/07/09 04:59:36;;;;;;;0.20;0.20;;;;;;;;;;5096244;28;20028;-90
2023/07/09 05:02:03;;;;;;;0.10;0.10;;;;;;;;;;5095774;28;20016;-90
2023/07/09 05:04:29;;;;;;;0.22;0.22;;;;;;;;;;5095992;28;20023;-90
2023/07/09 05:06:55;;;;;;;0.13;0.13;;;;;;;;;;5096139;28;20024;-90
2023/07/09 05:09:23;;;;;;;0.08;0.08;;;;;;;;;;5096011;28;20430;-90
2023/07/09 05:11:49;;;;;;;0.22;0.22;;;;;;;;;;5095797;28;20064;-90
2023/07/09 05:14:15;;;;;;;0.22;0.22;;;;;;;;;;5095832;28;20035;-90
2023/07/09 05:16:41;;;;;;;0.10;0.10;;;;;;;;;;5090604;28;20029;-95
2023/07/09 05:19:08;;;;;;;0.63;0.52;;;;;;;;;;5090134;28;20028;-89
2023/07/09 05:21:34;;;;;;;0.00;0.00;;;;;;;;;;5094526;28;20024;-90
2023/07/09 05:24:00;;;;;;;0.13;0.13;;;;;;;;;;5086585;28;20099;-88
2023/07/09 05:26:26;;;;;;;0.15;0.15;;;;;;;;;;5095108;28;20032;-91
2023/07/09 05:28:52;;;;;;;0.10;0.10;;;;;;;;;;5094992;28;20521;-89
2023/07/09 05:31:18;;;;;;;0.00;0.00;;;;;;;;;;5094388;28;20028;-89
2023/07/09 05:33:44;;;;;;;0.00;0.00;;;;;;;;;;5094838;28;20136;-89
2023/07/09 05:36:15;;;;;;;0.00;0.00;;;;;;;;;;5095246;28;20020;-90
2023/07/09 05:38:41;;;;;;;0.00;0.00;;;;;;;;;;5094896;28;20035;-90
2023/07/09 05:41:07;;;;;;;0.00;0.00;;;;;;;;;;5094938;28;20028;-91
2023/07/09 05:43:33;;;;;;;0.10;0.10;;;;;;;;;;5095101;28;20032;-91
2023/07/09 05:46:02;;;;;;;0.00;0.00;;;;;;;;;;5076147;28;20024;-90
2023/07/09 05:48:28;;;;;;;0.32;0.32;;;;;;;;;;5095501;28;20028;-91
2023/07/09 05:50:57;;;;;;;0.00;0.00;;;;;;;;;;5095109;28;20024;-92
2023/07/09 05:53:24;;;;;;;0.00;0.00;;;;;;;;;;5095027;28;20032;-92
2023/07/09 05:55:53;;;;;;;0.15;0.15;;;;;;;;;;5094974;28;20107;-93
2023/07/09 05:58:19;;;;;;;0.10;0.10;;;;;;;;;;5077241;28;20142;-92
2023/07/09 06:00:45;;;;;;;0.00;0.00;;;;;;;;;;5094708;28;20068;-93
2023/07/09 06:03:11;;;;;;;0.43;0.28;;;;;;;;;;5076605;28;20190;-93
2023/07/09 06:05:37;;;;;;;0.10;0.10;;;;;;;;;;5095717;28;20027;-96
2023/07/09 06:08:04;;;;;;;0.08;0.08;;;;;;;;;;5078073;28;20500;-95
2023/07/09 06:10:30;;;;;;;0.20;0.20;;;;;;;;;;5063741;28;20162;-94
2023/07/09 06:12:58;;;;;;;0.10;0.10;;;;;;;;;;5092582;28;20122;-96
2023/07/09 06:15:23;;;;;;;0.40;0.40;;;;;;;;;;5096401;28;20024;-96
2023/07/09 06:17:49;;;;;;;0.10;0.10;;;;;;;;;;5096433;28;20404;-95
2023/07/09 06:20:15;;;;;;;0.10;0.10;;;;;;;;;;5095686;28;20024;-96
2023/07/09 06:22:41;;;;;;;0.10;0.10;;;;;;;;;;5077375;28;20030;-94
2023/07/09 06:25:08;;;;;;;0.20;0.20;;;;;;;;;;5095431;28;20024;-95
2023/07/09 06:27:34;;;;;;;0.00;0.00;;;;;;;;;;5095971;28;20122;-94
2023/07/09 06:29:59;;;;;;;0.00;0.00;;;;;;;;;;5094646;28;20511;-91
2023/07/09 06:32:25;;;;;;;0.10;0.10;;;;;;;;;;5089738;28;20036;-90
2023/07/09 06:34:52;;;;;;;0.00;0.00;;;;;;;;;;5094248;28;20031;-92
2023/07/09 06:37:18;;;;;;;0.00;0.00;;;;;;;;;;5076419;28;20032;-90
2023/07/09 06:39:44;;;;;;;0.32;0.20;;;;;;;;;;5087138;28;20109;-92
2023/07/09 06:42:10;;;;;;;0.10;0.10;;;;;;;;;;5057167;28;20032;-90
2023/07/09 06:44:36;;;;;;;0.30;0.30;;;;;;;;;;5076816;28;21549;-92
2023/07/09 06:47:02;;;;;;;0.03;0.03;;;;;;;;;;5094793;28;20024;-91
2023/07/09 06:49:28;;;;;;;0.00;0.00;;;;;;;;;;5092599;28;20388;-91
2023/07/09 06:51:54;;;;;;;0.38;0.10;;;;;;;;;;5090818;28;20048;-91
2023/07/09 06:54:20;;;;;;;0.20;0.20;;;;;;;;;;5077632;28;20531;-92
2023/07/09 06:56:47;;;;;;;0.00;0.00;;;;;;;;;;5084581;28;20031;-93
2023/07/09 06:59:13;;;;;;;0.10;0.10;;;;;;;;;;5093808;28;20354;-92
2023/07/09 07:01:39;;;;;;;0.00;0.00;;;;;;;;;;5089319;28;20038;-92
2023/07/09 07:04:05;;;;;;;0.20;0.20;;;;;;;;;;5090101;28;20024;-91
2023/07/09 07:06:31;;;;;;;0.10;0.10;;;;;;;;;;5091639;28;20518;-90
2023/07/09 07:08:57;;;;;;;0.22;0.22;;;;;;;;;;5094389;28;20028;-92
2023/07/09 07:11:23;;;;;;;2.03;0.60;;;;;;;;;;5088876;28;20452;-93
2023/07/09 07:13:51;;;;;;;0.10;0.10;;;;;;;;;;5089807;28;20024;-91
2023/07/09 07:16:17;;;;;;;0.28;0.22;;;;;;;;;;5092677;28;20024;-89
2023/07/09 07:18:43;;;;;;;0.10;0.10;;;;;;;;;;5074790;28;20393;-91
2023/07/09 07:21:09;;;;;;;0.05;0.05;;;;;;;;;;5092064;28;20016;-90
2023/07/09 07:23:35;;;;;;;0.75;0.45;;;;;;;;;;5082876;28;20024;-92
2023/07/09 07:26:01;;;;;;;0.22;0.22;;;;;;;;;;5092377;28;20048;-93
2023/07/09 07:28:27;;;;;;;0.40;0.40;;;;;;;;;;5093362;28;20048;-93
2023/07/09 07:31:00;;;;;;;0.15;0.15;;;;;;;;;;5093386;28;20020;-93
2023/07/09 07:33:26;;;;;;;0.10;0.10;;;;;;;;;;5093391;28;20028;-94
2023/07/09 07:35:52;;;;;;;0.20;0.20;;;;;;;;;;5093526;28;20027;-93
2023/07/09 07:38:18;;;;;;;3.20;0.35;;;;;;;;;;5075165;28;20068;-91
2023/07/09 07:40:47;;;;;;;0.00;0.00;;;;;;;;;;5092633;28;20020;-91
2023/07/09 07:43:13;;;;;;;0.28;0.28;;;;;;;;;;5092631;28;20032;-91
2023/07/09 07:45:42;;;;;;;0.45;0.45;;;;;;;;;;5092915;28;20031;-91
2023/07/09 07:48:08;;;;;;;0.47;0.47;;;;;;;;;;5091419;28;20125;-91
2023/07/09 07:50:34;;;;;;;1.98;0.77;;;;;;;;;;5059282;28;20047;-92
2023/07/09 07:53:00;;;;;;;0.32;0.32;;;;;;;;;;5092722;28;20044;-91
2023/07/09 07:55:27;;;;;;;0.50;0.50;;;;;;;;;;5092406;28;20062;-91
2023/07/09 07:57:53;;;;;;;1.10;0.73;;;;;;;;;;5092767;28;20122;-91
2023/07/09 08:00:19;;;;;;;0.30;0.30;;;;;;;;;;5092614;28;20114;-91
2023/07/09 08:02:45;;;;;;;0.45;0.45;;;;;;;;;;5092594;28;20024;-92
2023/07/09 08:05:11;;;;;;;5.45;1.35;;;;;;;;;;5092648;28;20473;-91
2023/07/09 08:07:37;;;;;;;0.25;0.25;;;;;;;;;;5092612;28;20044;-91
2023/07/09 08:10:03;;;;;;;0.65;0.65;;;;;;;;;;5092649;28;20078;-91
2023/07/09 08:12:29;;;;;;;0.75;0.55;;;;;;;;;;5092509;28;20113;-92
2023/07/09 08:14:55;;;;;;;0.30;0.30;;;;;;;;;;5093004;28;20473;-92
2023/07/09 08:17:21;;;;;;;0.88;0.63;;;;;;;;;;5092556;28;20032;-92
2023/07/09 08:19:48;;;;;;;0.60;0.60;;;;;;;;;;5092437;28;20020;-91
2023/07/09 08:22:15;;;;;;;0.93;0.63;;;;;;;;;;5092748;28;20032;-91
2023/07/09 08:24:42;;;;;;;0.85;0.47;;;;;;;;;;5092098;28;20027;-92
2023/07/09 08:27:08;;;;;;;0.93;0.63;;;;;;;;;;5075431;28;20387;-91
2023/07/09 08:29:34;;;;;;;1.02;1.00;;;;;;;;;;5096747;28;20081;-91
2023/07/09 08:32:00;;;;;;;0.65;0.50;;;;;;;;;;5096526;28;20036;-92
2023/07/09 08:34:26;;;;;;;0.40;0.40;;;;;;;;;;5096548;28;20502;-91
2023/07/09 08:36:53;;;;;;;1.17;0.63;;;;;;;;;;5096581;28;20067;-91
2023/07/09 08:39:19;;;;;;;0.47;0.47;;;;;;;;;;5096398;28;20105;-91
2023/07/09 08:41:47;;;;;;;1.45;0.30;;;;;;;;;;5096611;28;20024;-91
2023/07/09 08:44:23;;;;;;;0.77;0.43;;;;;;;;;;5096480;28;20549;-92
2023/07/09 08:46:55;;;;;;;0.68;0.68;;;;;;;;;;5096446;28;20055;-91
2023/07/09 08:49:24;;;;;;;1.30;0.93;;;;;;;;;;5096396;28;20020;-91
2023/07/09 08:51:51;;;;;;;0.47;0.28;;;;;;;;;;5096437;28;20377;-91
2023/07/09 08:54:37;;;;;;;0.63;0.57;;;;;;;;;;5096021;28;20099;-91
2023/07/09 08:57:14;;;;;;;0.20;0.20;;;;;;;;;;5095898;28;20032;-91
2023/07/09 08:59:40;;;;;;;1.27;0.65;;;;;;;;;;5096007;28;20038;-92
2023/07/09 09:02:14;;;;;;;0.28;0.28;;;;;;;;;;5077931;28;20024;-92
2023/07/09 09:04:41;;;;;;;0.32;0.25;;;;;;;;;;5095948;28;20020;-92
2023/07/09 09:07:19;;;;;;;0.98;0.45;;;;;;;;;;5096087;28;20024;-91
2023/07/09 09:09:50;;;;;;;0.55;0.55;;;;;;;;;;5095919;28;20020;-91
2023/07/09 09:12:18;;;;;;;0.17;0.17;;;;;;;;;;5096076;28;20596;-91
2023/07/09 09:14:47;;;;;;;0.52;0.52;;;;;;;;;;5095854;28;20081;-92
2023/07/09 09:17:14;;;;;;;0.50;0.50;;;;;;;;;;5095823;28;20085;-92
2023/07/09 09:19:46;;;;;;;0.63;0.63;;;;;;;;;;5096040;28;20473;-91
2023/07/09 09:22:14;;;;;;;0.30;0.30;;;;;;;;;;5076984;28;20016;-92
2023/07/09 09:24:58;;;;;;;6.22;0.63;;;;;;;;;;5095565;28;20089;-92
2023/07/09 09:27:24;;;;;;;0.40;0.35;;;;;;;;;;5095504;28;20040;-91
2023/07/09 09:29:50;;;;;;;0.45;0.45;;;;;;;;;;5095459;28;20050;-92
2023/07/09 09:32:20;;;;;;;0.43;0.28;;;;;;;;;;5095435;28;20032;-91
2023/07/09 09:34:46;;;;;;;0.55;0.50;;;;;;;;;;5095546;28;20560;-92
2023/07/09 09:37:12;;;;;;;1.67;0.98;;;;;;;;;;5095632;28;20059;-91
2023/07/09 09:39:39;;;;;;;0.70;0.52;;;;;;;;;;5095408;28;20035;-91
2023/07/09 09:42:10;;;;;;;0.50;0.50;;;;;;;;;;5095388;28;20260;-92
2023/07/09 09:44:36;;;;;;;0.63;0.55;;;;;;;;;;5093419;28;20032;-92
2023/07/09 09:47:03;;;;;;;0.30;0.30;;;;;;;;;;5084875;28;20028;-96
2023/07/09 09:49:30;;;;;;;0.75;0.75;;;;;;;;;;5081857;28;20024;-96
2023/07/09 09:51:56;;;;;;;0.28;0.28;;;;;;;;;;5075824;28;20036;-96
2023/07/09 09:54:25;;;;;;;0.20;0.20;;;;;;;;;;5057875;28;20060;-95
2023/07/09 09:56:53;;;;;;;0.20;0.20;;;;;;;;;;5075171;28;20024;-93
2023/07/09 09:59:21;;;;;;;0.28;0.20;;;;;;;;;;5078120;28;20090;-96
2023/07/09 10:01:48;;;;;;;0.50;0.50;;;;;;;;;;5089070;28;20028;-96
2023/07/09 10:04:19;;;;;;;1.75;0.75;;;;;;;;;;5095926;28;20036;-96
2023/07/09 10:06:51;;;;;;;0.30;0.30;;;;;;;;;;5078091;28;20074;-96
2023/07/09 10:09:26;;;;;;;0.60;0.60;;;;;;;;;;5094816;28;20034;-96
2023/07/09 10:11:59;;;;;;;0.35;0.22;;;;;;;;;;5081010;28;20032;-96
2023/07/09 10:14:43;;;;;;;2.55;1.77;;;;;;;;;;5061118;28;20071;-96
2023/07/09 10:17:17;;;;;;;0.60;0.60;;;;;;;;;;5074529;28;20024;-94
2023/07/09 10:19:49;;;;;;;0.30;0.30;;;;;;;;;;5095695;28;20500;-96
2023/07/09 10:22:38;;;;;;;1.40;1.20;;;;;;;;;;5095421;28;20067;-96
2023/07/09 10:25:17;;;;;;;0.35;0.35;;;;;;;;;;5095494;28;20487;-96
2023/07/09 10:27:46;;;;;;;0.85;0.85;;;;;;;;;;5076991;28;20118;-96
2023/07/09 10:30:47;;;;;;;0.57;0.57;;;;;;;;;;5095790;28;20028;-96
2023/07/09 10:33:17;;;;;;;1.63;0.47;;;;;;;;;;4992360;28;20038;-96
2023/07/09 10:36:01;;;;;;;0.15;0.15;;;;;;;;;;4976569;28;20133;-96
2023/07/09 10:38:49;;;;;;;0.55;0.55;;;;;;;;;;4977269;28;20027;-96
2023/07/09 10:41:16;;;;;;;0.60;0.52;;;;;;;;;;4993507;28;20125;-96
2023/07/09 10:43:45;;;;;;;1.00;0.60;;;;;;;;;;4978036;28;20121;-96
2023/07/09 10:46:14;;;;;;;0.88;0.88;;;;;;;;;;4977830;28;20030;-96
2023/07/09 10:48:45;;;;;;;0.75;0.47;;;;;;;;;;4978281;28;20054;-95
2023/07/09 10:51:17;;;;;;;0.43;0.40;;;;;;;;;;4975647;28;20399;-95
2023/07/09 10:53:45;;;;;;;0.85;0.80;;;;;;;;;;4990162;28;20039;-96
2023/07/09 10:56:20;;;;;;;0.50;0.45;;;;;;;;;;4999178;28;20034;-96
2023/07/09 10:58:58;;;;;;;0.70;0.43;;;;;;;;;;4994940;28;20026;-94
2023/07/09 11:01:30;;;;;;;0.17;0.17;;;;;;;;;;4994192;28;20041;-96
2023/07/09 11:04:00;;;;;;;0.75;0.75;;;;;;;;;;4978703;28;20508;-92
2023/07/09 11:06:34;;;;;;;0.60;0.60;;;;;;;;;;5005221;28;20095;-90
2023/07/09 11:09:01;;;;;;;0.63;0.60;;;;;;;;;;5079692;28;20379;-90
2023/07/09 11:11:34;;;;;;;0.47;0.30;;;;;;;;;;5080723;28;20071;-90
2023/07/09 11:14:07;;;;;;;0.68;0.63;;;;;;;;;;5091947;28;20019;-91
2023/07/09 11:16:38;;;;;;;0.50;0.50;;;;;;;;;;5089433;28;20020;-90
2023/07/09 11:19:06;;;;;;;0.65;0.65;;;;;;;;;;5071979;28;20749;-92
2023/07/09 11:21:32;;;;;;;1.42;0.65;;;;;;;;;;5089230;28;20400;-91
2023/07/09 11:23:59;;;;;;;0.55;0.40;;;;;;;;;;5078199;28;20032;-92
2023/07/09 11:26:33;;;;;;;0.45;0.45;;;;;;;;;;5085310;28;20496;-92
2023/07/09 11:29:19;;;;;;;0.82;0.60;;;;;;;;;;5090327;28;20052;-91
2023/07/09 11:31:47;;;;;;;1.13;0.85;;;;;;;;;;5091954;28;20046;-91
2023/07/09 11:34:13;;;;;;;0.30;0.30;;;;;;;;;;5091258;28;20054;-92
2023/07/09 11:36:51;;;;;;;0.47;0.40;;;;;;;;;;5090594;28;20032;-90
2023/07/09 11:39:22;;;;;;;0.68;0.65;;;;;;;;;;5092139;28;20024;-90
2023/07/09 11:41:48;;;;;;;0.55;0.55;;;;;;;;;;5092038;28;20059;-91
2023/07/09 11:44:18;;;;;;;0.65;0.60;;;;;;;;;;5083728;28;20024;-92
2023/07/09 11:47:05;;;;;;;0.40;0.40;;;;;;;;;;5063846;28;20051;-89
2023/07/09 11:49:39;;;;;;;0.43;0.43;;;;;;;;;;4991786;28;20077;-91
2023/07/09 11:52:06;;;;;;;0.10;0.10;;;;;;;;;;4982123;28;20556;-92
2023/07/09 11:54:35;;;;;;;0.68;0.68;;;;;;;;;;4972060;28;20131;-92
2023/07/09 11:57:02;;;;;;;0.65;0.50;;;;;;;;;;4971816;28;20030;-92
2023/07/09 11:59:29;;;;;;;0.82;0.70;;;;;;;;;;4981992;28;20490;-92
2023/07/09 12:01:56;;;;;;;0.38;0.38;;;;;;;;;;4971313;28;20038;-92
2023/07/09 12:04:30;;;;;;;0.20;0.20;;;;;;;;;;4989455;28;20031;-92
2023/07/09 12:06:58;;;;;;;0.30;0.30;;;;;;;;;;4991228;28;20093;-92
2023/07/09 12:09:24;;;;;;;0.35;0.35;;;;;;;;;;4991018;28;20118;-92
2023/07/09 12:11:51;;;;;;;0.50;0.50;;;;;;;;;;4990979;28;20133;-92
2023/07/09 12:14:19;;;;;;;1.08;0.98;;;;;;;;;;4975263;28;20042;-92
2023/07/09 12:16:46;;;;;;;1.85;0.43;;;;;;;;;;4990834;28;20093;-92
2023/07/09 12:19:13;;;;;;;1.20;1.10;;;;;;;;;;4984285;28;20034;-92
2023/07/09 12:21:40;;;;;;;0.30;0.30;;;;;;;;;;4971655;28;20027;-92
2023/07/09 12:24:32;;;;;;;2.15;1.52;;;;;;;;;;4988134;28;20038;-92
2023/07/09 12:27:03;;;;;;;2.20;0.63;;;;;;;;;;5042108;28;20037;-91
2023/07/09 12:29:30;;;;;;;0.77;0.65;;;;;;;;;;5091164;28;20404;-92
2023/07/09 12:31:59;;;;;;;0.10;0.10;;;;;;;;;;5092628;28;20171;-92
2023/07/09 12:34:25;;;;;;;0.40;0.40;;;;;;;;;;5076521;28;20035;-91
2023/07/09 12:36:53;;;;;;;0.50;0.50;;;;;;;;;;5082980;28;20032;-92
2023/07/09 12:39:25;;;;;;;1.02;0.50;;;;;;;;;;5090396;28;20145;-92
2023/07/09 12:41:54;;;;;;;0.82;0.82;;;;;;;;;;5092727;28;20042;-92
2023/07/09 12:44:21;;;;;;;0.65;0.35;;;;;;;;;;5085477;28;20516;-93
2023/07/09 12:46:48;;;;;;;0.60;0.60;;;;;;;;;;5072137;28;20030;-93
2023/07/09 12:49:28;;;;;;;0.30;0.30;;;;;;;;;;5074972;28;20526;-93
2023/07/09 12:51:55;;;;;;;0.47;0.47;;;;;;;;;;5091416;28;20479;-92
2023/07/09 12:54:21;;;;;;;1.38;1.00;;;;;;;;;;5085546;28;20469;-93
2023/07/09 12:56:51;;;;;;;0.63;0.60;;;;;;;;;;5072249;28;20389;-93
2023/07/09 12:59:19;;;;;;;0.40;0.40;;;;;;;;;;5057631;28;20429;-93
2023/07/09 13:02:00;;;;;;;0.65;0.63;;;;;;;;;;5084390;28;20469;-93
2023/07/09 13:04:35;;;;;;;0.35;0.28;;;;;;;;;;5091661;28;20024;-92
2023/07/09 13:07:02;;;;;;;0.45;0.45;;;;;;;;;;5089728;28;20046;-92
2023/07/09 13:09:28;;;;;;;7.47;1.70;;;;;;;;;;5092383;28;20012;-93
2023/07/09 13:11:55;;;;;;;0.28;0.28;;;;;;;;;;5087144;28;20057;-93
2023/07/09 13:14:30;;;;;;;0.75;0.65;;;;;;;;;;5094838;28;20020;-92
2023/07/09 13:17:06;;;;;;;0.50;0.50;;;;;;;;;;5096006;28;20020;-93
2023/07/09 13:19:33;;;;;;;0.75;0.63;;;;;;;;;;5096140;28;20028;-93
2023/07/09 13:21:59;;;;;;;0.30;0.30;;;;;;;;;;5095156;28;20024;-93
2023/07/09 13:24:28;;;;;;;0.20;0.20;;;;;;;;;;5079560;28;20081;-92
2023/07/09 13:26:54;;;;;;;0.63;0.63;;;;;;;;;;5092521;28;20023;-92
2023/07/09 13:29:21;;;;;;;0.30;0.30;;;;;;;;;;5090530;28;20052;-91
2023/07/09 13:31:48;;;;;;;1.38;0.80;;;;;;;;;;5091303;28;20439;-93
2023/07/09 13:34:26;;;;;;;0.30;0.30;;;;;;;;;;5083770;28;20077;-93
2023/07/09 13:36:53;;;;;;;0.32;0.32;;;;;;;;;;5093175;28;20020;-93
2023/07/09 13:39:20;;;;;;;2.30;1.25;;;;;;;;;;5095558;28;20032;-92
2023/07/09 13:41:46;;;;;;;0.47;0.47;;;;;;;;;;5076876;28;20095;-93
2023/07/09 13:44:20;;;;;;;0.35;0.35;;;;;;;;;;5092363;28;20025;-93
2023/07/09 13:46:46;;;;;;;0.57;0.57;;;;;;;;;;5086579;28;20115;-92
2023/07/09 13:49:14;;;;;;;0.73;0.55;;;;;;;;;;5086642;28;20038;-92
2023/07/09 13:51:41;;;;;;;0.73;0.70;;;;;;;;;;5090604;28;20040;-93
2023/07/09 13:54:22;;;;;;;0.80;0.45;;;;;;;;;;5075347;28;20020;-93
2023/07/09 13:56:49;;;;;;;0.75;0.75;;;;;;;;;;5074940;28;20449;-93
2023/07/09 13:59:22;;;;;;;0.65;0.65;;;;;;;;;;5082491;28;20406;-93
2023/07/09 14:01:49;;;;;;;0.73;0.73;;;;;;;;;;5093402;28;20055;-94
2023/07/09 14:04:16;;;;;;;7.43;1.52;;;;;;;;;;5095354;28;20481;-92
2023/07/09 14:06:43;;;;;;;0.40;0.40;;;;;;;;;;5095280;28;20027;-93
2023/07/09 14:09:10;;;;;;;3.75;0.38;;;;;;;;;;5095099;28;20027;-93
2023/07/09 14:11:40;;;;;;;0.50;0.50;;;;;;;;;;5094989;28;20392;-93
2023/07/09 14:14:14;;;;;;;0.85;0.82;;;;;;;;;;5095152;28;20078;-93
2023/07/09 14:16:40;;;;;;;1.05;0.85;;;;;;;;;;5095265;28;20024;-92
2023/07/09 14:19:09;;;;;;;0.65;0.63;;;;;;;;;;5094813;28;20457;-93
2023/07/09 14:21:35;;;;;;;0.10;0.10;;;;;;;;;;5076631;28;20537;-93
2023/07/09 14:24:01;;;;;;;1.08;0.70;;;;;;;;;;5094326;28;20039;-93
2023/07/09 14:26:27;;;;;;;7.63;0.88;;;;;;;;;;5093913;28;20028;-93
2023/07/09 14:28:53;;;;;;;0.47;0.47;;;;;;;;;;5095181;28;20408;-93
2023/07/09 14:31:23;;;;;;;1.15;1.05;;;;;;;;;;5094605;28;20056;-93
2023/07/09 14:33:49;;;;;;;10.50;1.05;;;;;;;;;;5094471;28;20032;-93
2023/07/09 14:36:15;;;;;;;0.20;0.20;;;;;;;;;;5094659;28;20028;-93
2023/07/09 14:38:41;;;;;;;3.92;1.88;;;;;;;;;;5094668;28;20043;-93
2023/07/09 14:41:19;;;;;;;0.30;0.30;;;;;;;;;;5094685;28;20047;-93
2023/07/09 14:43:45;;;;;;;0.75;0.52;;;;;;;;;;5094953;28;20077;-93
2023/07/09 14:46:12;;;;;;;0.32;0.32;;;;;;;;;;5094550;28;20110;-92
2023/07/09 14:48:38;;;;;;;0.55;0.55;;;;;;;;;;5094240;28;20035;-93